Terminal Aerodrome Forecast
Issued by NWS

Home | Current Version | Previous Version | Text Only | Print | Product List | Glossary On
Versions: 1 2 3 4 5 6 7 8 9 10 11 12 13 14 15 16 17 18 19 20 21 22
000
FTUS42 KMHX 271732
TAFOAJ
TAF
KOAJ 271732Z 2718/2818 18010G15KT P6SM SCT040
     FM272200 18010G15KT P6SM SCT150
     FM280400 16005KT P6SM OVC060
     FM280600 16005KT 2SM -SHRA OVC050
     FM281100 14005KT 2SM +SHRA OVC020
      AMD LTD TO CLD VIS AND WIND=

USA.gov is the U.S. government's official web portal to all federal, state and local government web resources and services.